createdAt,value
2018-05-17T00:01:18.555Z,11.17
2018-05-17T00:03:47.272Z,10.30
2018-05-17T00:06:15.412Z,10.93
2018-05-17T00:08:43.553Z,11.23
2018-05-17T00:11:11.688Z,11.20
2018-05-17T00:13:39.819Z,11.15
2018-05-17T00:16:08.040Z,11.80
2018-05-17T00:18:36.158Z,13.23
2018-05-17T00:21:04.295Z,11.90
2018-05-17T00:23:32.421Z,10.93
2018-05-17T00:26:00.555Z,9.37
2018-05-17T00:28:28.675Z,8.43
2018-05-17T00:30:56.802Z,7.90
2018-05-17T00:33:24.927Z,8.68
2018-05-17T00:35:53.045Z,8.00
2018-05-17T00:38:21.167Z,7.50
2018-05-17T00:40:49.292Z,7.40
2018-05-17T00:43:17.407Z,7.72
2018-05-17T00:45:45.543Z,6.87
2018-05-17T00:48:13.677Z,8.17
2018-05-17T00:50:41.787Z,7.57
2018-05-17T00:53:32.933Z,7.30
2018-05-17T00:56:01.043Z,8.13
2018-05-17T00:58:29.163Z,7.63
2018-05-17T01:00:57.287Z,8.23
2018-05-17T01:03:25.397Z,8.87
2018-05-17T01:05:53.524Z,8.23
2018-05-17T01:08:21.644Z,8.30
2018-05-17T01:10:49.780Z,9.60
2018-05-17T01:13:17.886Z,8.20
2018-05-17T01:15:46.021Z,8.90
2018-05-17T01:18:14.134Z,8.87
2018-05-17T01:20:42.256Z,9.73
2018-05-17T01:23:10.389Z,8.97
2018-05-17T01:25:38.507Z,10.10
2018-05-17T01:28:06.631Z,10.27
2018-05-17T01:30:34.761Z,8.83
2018-05-17T01:33:02.881Z,9.73
2018-05-17T01:35:30.992Z,9.47
2018-05-17T01:38:10.999Z,9.67
2018-05-17T01:40:39.140Z,10.07
2018-05-17T01:43:07.285Z,9.50
2018-05-17T01:45:35.439Z,10.07
2018-05-17T01:48:03.569Z,10.17
2018-05-17T01:50:31.696Z,11.47
2018-05-17T01:52:59.823Z,9.00
2018-05-17T01:55:27.952Z,9.48
2018-05-17T01:57:56.105Z,8.63
2018-05-17T02:00:24.271Z,9.10
2018-05-17T02:02:52.404Z,10.03
2018-05-17T02:05:20.529Z,8.80
2018-05-17T02:07:48.692Z,9.60
2018-05-17T02:10:16.797Z,9.43
2018-05-17T02:12:44.916Z,9.23
2018-05-17T02:15:13.043Z,10.33
2018-05-17T02:17:41.172Z,9.43
2018-05-17T02:20:09.290Z,9.80
2018-05-17T02:22:37.413Z,10.13
2018-05-17T02:25:05.636Z,10.30
2018-05-17T02:27:33.778Z,10.27
2018-05-17T02:30:01.920Z,10.57
2018-05-17T02:32:33.883Z,10.60
2018-05-17T02:35:02.008Z,10.70
2018-05-17T02:37:30.142Z,10.63
2018-05-17T02:39:58.423Z,11.63
2018-05-17T02:42:26.442Z,11.30
2018-05-17T02:44:54.570Z,11.40
2018-05-17T02:47:22.766Z,11.07
2018-05-17T02:49:50.830Z,11.80
2018-05-17T02:52:18.971Z,11.57
2018-05-17T02:54:47.091Z,11.63
2018-05-17T02:57:15.235Z,10.80
2018-05-17T02:59:43.372Z,12.47
2018-05-17T03:02:11.486Z,12.57
2018-05-17T03:04:39.634Z,13.50
2018-05-17T03:07:07.776Z,13.68
2018-05-17T03:09:35.907Z,14.43
2018-05-17T03:12:04.044Z,15.20
2018-05-17T03:14:32.173Z,14.83
2018-05-17T03:17:00.324Z,14.53
2018-05-17T03:19:28.440Z,14.97
2018-05-17T03:21:56.572Z,14.10
2018-05-17T03:24:24.714Z,12.93
2018-05-17T03:26:52.876Z,14.10
2018-05-17T03:29:21.003Z,15.38
2018-05-17T03:31:49.143Z,14.80
2018-05-17T03:34:17.267Z,16.60
2018-05-17T03:36:45.408Z,16.20
2018-05-17T03:39:13.544Z,14.43
2018-05-17T03:41:41.669Z,17.07
2018-05-17T03:44:09.818Z,20.33
2018-05-17T03:46:37.948Z,21.40
2018-05-17T03:49:06.155Z,20.90
2018-05-17T03:51:34.473Z,23.60
2018-05-17T03:54:02.622Z,23.52
2018-05-17T03:56:30.746Z,23.03
2018-05-17T03:58:58.915Z,23.50
2018-05-17T04:01:38.731Z,23.20
2018-05-17T04:04:18.707Z,23.42
2018-05-17T04:06:46.855Z,24.17
2018-05-17T04:09:15.006Z,25.83
2018-05-17T04:11:43.127Z,24.70
2018-05-17T04:14:11.254Z,24.20
2018-05-17T04:16:39.388Z,22.80
2018-05-17T04:19:07.529Z,22.40
2018-05-17T04:21:35.666Z,25.23
2018-05-17T04:24:03.886Z,24.33
2018-05-17T04:26:31.957Z,23.83
2018-05-17T04:29:00.117Z,22.57
2018-05-17T04:31:28.253Z,24.30
2018-05-17T04:33:56.402Z,21.97
2018-05-17T04:36:24.538Z,24.57
2018-05-17T04:38:52.666Z,24.37
2018-05-17T04:41:20.828Z,23.70
2018-05-17T04:43:48.960Z,21.63
2018-05-17T04:46:17.089Z,19.00
2018-05-17T04:48:45.207Z,19.10
2018-05-17T04:51:13.356Z,17.87
2018-05-17T04:53:41.510Z,16.17
2018-05-17T04:56:09.636Z,17.00
2018-05-17T04:58:37.766Z,15.47
2018-05-17T05:01:05.925Z,16.23
2018-05-17T05:03:34.059Z,15.00
2018-05-17T05:06:02.190Z,15.67
2018-05-17T05:08:30.457Z,14.97
2018-05-17T05:10:58.583Z,15.63
2018-05-17T05:13:26.727Z,15.43
2018-05-17T05:15:54.867Z,14.50
2018-05-17T05:18:23.005Z,14.03
2018-05-17T05:20:51.160Z,14.10
2018-05-17T05:23:19.293Z,14.60
2018-05-17T05:25:47.424Z,14.33
2018-05-17T05:28:15.551Z,13.70
2018-05-17T05:30:43.679Z,14.43
2018-05-17T05:33:11.816Z,12.88
2018-05-17T05:35:39.951Z,13.33
2018-05-17T05:38:08.081Z,13.80
2018-05-17T05:40:36.218Z,13.70
2018-05-17T05:43:04.346Z,12.60
2018-05-17T05:45:32.499Z,12.50
2018-05-17T05:48:00.621Z,14.18
2018-05-17T05:50:28.756Z,13.70
2018-05-17T05:52:56.892Z,13.00
2018-05-17T05:55:25.052Z,14.93
2018-05-17T05:57:53.159Z,14.30
2018-05-17T06:00:22.020Z,12.97
2018-05-17T06:02:50.136Z,15.27
2018-05-17T06:05:18.271Z,16.37
2018-05-17T06:07:46.398Z,13.60
2018-05-17T06:10:14.542Z,16.67
2018-05-17T06:12:42.694Z,14.93
2018-05-17T06:15:10.808Z,15.90
2018-05-17T06:17:38.951Z,16.10
2018-05-17T06:20:07.088Z,15.10
2018-05-17T06:22:35.217Z,16.50
2018-05-17T06:25:03.363Z,16.30
2018-05-17T06:27:31.490Z,16.07
2018-05-17T06:29:59.638Z,17.80
2018-05-17T06:32:27.772Z,16.10
2018-05-17T06:34:55.902Z,16.60
2018-05-17T06:37:24.037Z,16.37
2018-05-17T06:39:52.172Z,16.23
2018-05-17T06:42:20.724Z,15.53
2018-05-17T06:44:48.857Z,15.50
2018-05-17T06:47:16.987Z,15.85
2018-05-17T06:49:45.118Z,15.80
2018-05-17T06:52:13.267Z,14.90
2018-05-17T06:54:41.430Z,14.23
2018-05-17T06:57:10.340Z,14.60
2018-05-17T06:59:38.470Z,14.80
2018-05-17T07:02:06.600Z,16.00
2018-05-17T07:04:34.743Z,14.80
2018-05-17T07:07:02.866Z,14.13
2018-05-17T07:09:31.005Z,13.20
2018-05-17T07:11:59.138Z,14.77
2018-05-17T07:14:27.274Z,14.35
2018-05-17T07:16:55.407Z,14.90
2018-05-17T07:19:23.543Z,14.95
2018-05-17T07:21:51.677Z,14.77
2018-05-17T07:24:19.799Z,12.73
2018-05-17T07:26:47.943Z,14.13
2018-05-17T07:29:16.073Z,12.45
2018-05-17T07:31:44.205Z,13.37
2018-05-17T07:34:12.345Z,12.80
2018-05-17T07:36:40.488Z,12.10
2018-05-17T07:39:08.702Z,11.50
2018-05-17T07:41:36.776Z,13.00
2018-05-17T07:44:04.919Z,12.20
2018-05-17T07:46:33.064Z,11.50
2018-05-17T07:49:01.207Z,12.45
2018-05-17T07:51:29.341Z,12.97
2018-05-17T07:53:57.473Z,13.03
2018-05-17T07:56:25.624Z,10.73
2018-05-17T07:58:53.741Z,12.13
2018-05-17T08:01:21.887Z,12.10
2018-05-17T08:03:50.027Z,12.87
2018-05-17T08:06:18.182Z,13.80
2018-05-17T08:08:46.311Z,14.30
2018-05-17T08:11:14.472Z,14.05
2018-05-17T08:13:42.577Z,13.20
2018-05-17T08:16:10.730Z,12.90
2018-05-17T08:18:38.861Z,11.90
2018-05-17T08:21:07.008Z,11.60
2018-05-17T08:23:35.138Z,12.27
2018-05-17T08:26:03.277Z,12.20
2018-05-17T08:28:31.407Z,11.60
2018-05-17T08:30:59.540Z,11.33
2018-05-17T08:33:27.679Z,10.67
2018-05-17T08:35:55.826Z,11.67
2018-05-17T08:38:23.952Z,11.53
2018-05-17T08:40:52.099Z,12.20
2018-05-17T08:43:20.248Z,10.25
2018-05-17T08:45:48.384Z,9.60
2018-05-17T08:48:16.509Z,9.57
2018-05-17T08:50:44.652Z,10.60
2018-05-17T08:53:12.771Z,9.82
2018-05-17T08:55:40.909Z,10.87
2018-05-17T08:58:09.028Z,11.60
2018-05-17T09:00:37.166Z,11.10
2018-05-17T09:03:05.307Z,11.97
2018-05-17T09:05:33.446Z,10.70
2018-05-17T09:08:01.568Z,9.53
2018-05-17T09:10:29.708Z,9.70
2018-05-17T09:12:57.836Z,9.30
2018-05-17T09:15:25.959Z,11.02
2018-05-17T09:17:54.131Z,10.00
2018-05-17T09:20:22.277Z,12.00
2018-05-17T09:22:50.393Z,10.90
2018-05-17T09:25:18.566Z,12.10
2018-05-17T09:27:46.690Z,11.53
2018-05-17T09:30:15.214Z,11.60
2018-05-17T09:32:43.460Z,12.97
2018-05-17T09:35:11.583Z,14.10
2018-05-17T09:37:39.714Z,15.40
2018-05-17T09:40:07.848Z,15.53
2018-05-17T09:42:35.975Z,17.43
2018-05-17T09:45:04.094Z,16.87
2018-05-17T09:47:32.234Z,17.87
2018-05-17T09:50:00.441Z,18.77
2018-05-17T09:52:28.486Z,18.33
2018-05-17T09:54:56.647Z,18.42
2018-05-17T09:57:24.762Z,18.45
2018-05-17T09:59:52.886Z,19.40
2018-05-17T10:02:21.032Z,20.60
2018-05-17T10:04:49.167Z,18.57
2018-05-17T10:07:17.559Z,19.50
2018-05-17T10:09:45.698Z,18.70
2018-05-17T10:12:13.825Z,19.60
2018-05-17T10:14:42.025Z,18.60
2018-05-17T10:17:10.804Z,18.45
2018-05-17T10:19:38.950Z,18.87
2018-05-17T10:22:07.103Z,18.57
2018-05-17T10:24:35.272Z,18.30
2018-05-17T10:27:03.397Z,18.07
2018-05-17T10:29:31.576Z,18.30
2018-05-17T10:31:59.660Z,16.70
2018-05-17T10:34:27.827Z,17.27
2018-05-17T10:36:55.960Z,20.00
2018-05-17T10:39:24.094Z,19.10
2018-05-17T10:41:52.238Z,18.60
2018-05-17T10:44:20.374Z,19.00
2018-05-17T10:46:48.520Z,20.40
2018-05-17T10:49:16.647Z,20.45
2018-05-17T10:51:44.775Z,19.80
2018-05-17T10:54:12.897Z,20.60
2018-05-17T10:56:41.043Z,20.03
2018-05-17T10:59:09.165Z,21.33
2018-05-17T11:01:37.292Z,20.27
2018-05-17T11:04:05.427Z,20.33
2018-05-17T11:06:33.550Z,21.90
2018-05-17T11:09:01.702Z,21.20
2018-05-17T11:11:29.835Z,20.40
2018-05-17T11:13:57.971Z,20.03
2018-05-17T11:16:26.095Z,21.07
2018-05-17T11:18:54.237Z,22.20
2018-05-17T11:21:22.408Z,21.05
2018-05-17T11:23:50.543Z,21.70
2018-05-17T11:26:18.684Z,23.00
2018-05-17T11:28:46.822Z,24.37
2018-05-17T11:31:14.983Z,21.70
2018-05-17T11:33:43.124Z,23.27
2018-05-17T11:36:11.251Z,24.30
2018-05-17T11:38:39.374Z,24.00
2018-05-17T11:41:07.557Z,23.57
2018-05-17T11:43:35.719Z,25.50
2018-05-17T11:46:03.863Z,25.10
2018-05-17T11:48:32.014Z,24.83
2018-05-17T11:51:00.135Z,23.07
2018-05-17T11:53:28.272Z,22.40
2018-05-17T11:55:56.421Z,22.93
2018-05-17T11:58:24.565Z,24.67
2018-05-17T12:00:52.693Z,22.90
2018-05-17T12:03:20.820Z,25.07
2018-05-17T12:05:48.947Z,22.33
2018-05-17T12:08:17.076Z,25.80
2018-05-17T12:10:46.216Z,24.20
2018-05-17T12:13:14.352Z,25.83
2018-05-17T12:15:42.670Z,23.67
2018-05-17T12:18:10.650Z,23.80
2018-05-17T12:20:38.770Z,24.30
2018-05-17T12:23:07.134Z,24.83
2018-05-17T12:25:35.153Z,24.70
2018-05-17T12:28:03.291Z,21.27
2018-05-17T12:30:31.452Z,22.70
2018-05-17T12:32:59.583Z,22.70
2018-05-17T12:35:27.743Z,24.00
2018-05-17T12:37:55.874Z,26.40
2018-05-17T12:40:24.012Z,26.20
2018-05-17T12:42:52.161Z,23.20
2018-05-17T12:45:20.301Z,24.80
2018-05-17T12:47:48.439Z,24.70
2018-05-17T12:50:16.577Z,21.33
2018-05-17T12:52:44.709Z,22.93
2018-05-17T12:55:12.868Z,23.13
2018-05-17T12:57:40.998Z,23.30
2018-05-17T13:00:09.130Z,23.77
2018-05-17T13:02:37.274Z,23.43
2018-05-17T13:05:07.164Z,21.50
2018-05-17T13:07:35.297Z,22.17
2018-05-17T13:10:03.425Z,23.90
2018-05-17T13:12:31.569Z,23.73
2018-05-17T13:14:59.735Z,25.20
2018-05-17T13:17:27.874Z,22.58
2018-05-17T13:19:56.002Z,22.93
2018-05-17T13:22:24.150Z,23.67
2018-05-17T13:24:52.329Z,23.60
2018-05-17T13:27:20.421Z,24.03
2018-05-17T13:29:48.577Z,22.27
2018-05-17T13:32:16.708Z,21.57
2018-05-17T13:34:44.852Z,21.63
2018-05-17T13:37:13.119Z,21.43
2018-05-17T13:39:41.200Z,22.23
2018-05-17T13:42:09.337Z,22.27
2018-05-17T13:44:37.478Z,20.40
2018-05-17T13:47:05.657Z,21.33
2018-05-17T13:49:33.784Z,23.60
2018-05-17T13:52:01.916Z,22.60
2018-05-17T13:54:30.048Z,22.33
2018-05-17T13:56:58.190Z,22.53
2018-05-17T13:59:26.333Z,22.30
2018-05-17T14:01:54.476Z,22.37
2018-05-17T14:04:22.610Z,23.57
2018-05-17T14:06:50.751Z,22.07
2018-05-17T14:09:18.896Z,23.12
2018-05-17T14:11:47.567Z,22.30
2018-05-17T14:14:15.719Z,21.57
2018-05-17T14:16:43.839Z,21.83
2018-05-17T14:19:12.034Z,22.47
2018-05-17T14:21:40.186Z,22.00
2018-05-17T14:24:09.158Z,21.08
2018-05-17T14:26:37.319Z,20.00
2018-05-17T14:29:05.476Z,20.10
2018-05-17T14:31:33.624Z,19.97
2018-05-17T14:34:01.746Z,19.10
2018-05-17T14:36:29.898Z,21.37
2018-05-17T14:38:58.045Z,44.03
2018-05-17T14:41:26.190Z,52.33
2018-05-17T14:43:54.325Z,44.10
2018-05-17T14:46:22.458Z,23.80
2018-05-17T14:48:50.595Z,24.40
2018-05-17T14:51:19.289Z,21.65
2018-05-17T14:53:47.439Z,18.37
2018-05-17T14:56:15.575Z,18.77
2018-05-17T14:58:44.033Z,17.57
2018-05-17T15:01:12.259Z,17.50
2018-05-17T15:03:40.351Z,15.60
2018-05-17T15:06:08.484Z,16.80
2018-05-17T15:08:36.636Z,18.60
2018-05-17T15:11:04.778Z,17.17
2018-05-17T15:13:32.935Z,18.13
2018-05-17T15:16:01.078Z,17.67
2018-05-17T15:18:29.203Z,18.73
2018-05-17T15:20:57.341Z,17.10
2018-05-17T15:23:25.491Z,17.15
2018-05-17T15:25:53.638Z,16.30
2018-05-17T15:28:21.815Z,15.97
2018-05-17T15:30:49.988Z,20.50
2018-05-17T15:33:18.164Z,17.98
2018-05-17T15:35:46.349Z,28.97
2018-05-17T15:38:14.489Z,15.73
2018-05-17T15:40:42.613Z,15.77
2018-05-17T15:43:10.758Z,16.00
2018-05-17T15:45:38.881Z,15.60
2018-05-17T15:48:07.081Z,14.80
2018-05-17T15:50:35.170Z,15.30
2018-05-17T15:53:03.370Z,15.57
2018-05-17T15:55:31.502Z,16.40
2018-05-17T15:57:59.655Z,14.80
2018-05-17T16:00:27.799Z,16.40
2018-05-17T16:02:55.937Z,17.13
2018-05-17T16:05:24.073Z,16.90
2018-05-17T16:07:52.209Z,17.50
2018-05-17T16:10:20.346Z,19.17
2018-05-17T16:12:48.497Z,17.70
2018-05-17T16:15:16.788Z,18.20
2018-05-17T16:17:44.811Z,19.50
2018-05-17T16:20:12.951Z,18.20
2018-05-17T16:22:41.099Z,18.80
2018-05-17T16:25:10.277Z,20.77
2018-05-17T16:27:38.417Z,20.57
2018-05-17T16:30:06.546Z,19.70
2018-05-17T16:32:34.701Z,21.60
2018-05-17T16:35:02.843Z,19.97
2018-05-17T16:37:30.987Z,21.33
2018-05-17T16:39:59.119Z,20.70
2018-05-17T16:42:27.249Z,21.40
2018-05-17T16:44:55.381Z,21.27
2018-05-17T16:47:23.556Z,22.73
2018-05-17T16:49:52.086Z,21.80
2018-05-17T16:52:20.248Z,21.42
2018-05-17T16:54:48.382Z,21.80
2018-05-17T16:57:16.534Z,21.30
2018-05-17T16:59:44.685Z,20.03
2018-05-17T17:02:12.819Z,19.90
2018-05-17T17:04:41.052Z,21.57
2018-05-17T17:07:09.100Z,19.90
2018-05-17T17:09:37.250Z,21.50
2018-05-17T17:12:05.374Z,21.37
2018-05-17T17:14:33.508Z,21.67
2018-05-17T17:17:01.654Z,20.65
2018-05-17T17:19:29.799Z,22.03
2018-05-17T17:21:57.925Z,23.30
2018-05-17T17:24:26.076Z,23.03
2018-05-17T17:26:54.213Z,20.03
2018-05-17T17:29:22.333Z,22.35
2018-05-17T17:31:50.476Z,21.60
2018-05-17T17:34:18.655Z,21.33
2018-05-17T17:36:46.754Z,21.03
2018-05-17T17:39:14.916Z,22.70
2018-05-17T17:41:43.094Z,21.37
2018-05-17T17:44:11.255Z,21.80
2018-05-17T17:46:39.404Z,22.83
2018-05-17T17:49:07.563Z,23.17
2018-05-17T17:51:35.686Z,23.53
2018-05-17T17:54:03.841Z,23.77
2018-05-17T17:56:31.969Z,25.67
2018-05-17T17:59:00.100Z,25.73
2018-05-17T18:01:28.240Z,23.90
2018-05-17T18:03:56.390Z,24.43
2018-05-17T18:06:24.824Z,24.17
2018-05-17T18:08:52.965Z,24.30
2018-05-17T18:11:21.260Z,23.83
2018-05-17T18:13:49.395Z,23.70
2018-05-17T18:16:17.535Z,23.40
2018-05-17T18:18:46.549Z,22.50
2018-05-17T18:21:14.718Z,23.40
2018-05-17T18:23:42.854Z,22.20
2018-05-17T18:26:11.092Z,21.58
2018-05-17T18:28:39.172Z,22.17
2018-05-17T18:31:07.358Z,24.43
2018-05-17T18:33:35.511Z,24.33
2018-05-17T18:36:03.667Z,23.48
2018-05-17T18:38:32.555Z,22.50
2018-05-17T18:41:00.683Z,23.63
2018-05-17T18:43:28.819Z,24.90
2018-05-17T18:45:56.958Z,26.47
2018-05-17T18:48:25.094Z,26.93
2018-05-17T18:50:53.248Z,27.13
2018-05-17T18:53:21.407Z,27.10
2018-05-17T18:55:49.759Z,24.27
2018-05-17T18:58:17.847Z,23.00
2018-05-17T19:00:46.156Z,21.47
2018-05-17T19:03:14.309Z,18.93
2018-05-17T19:05:42.459Z,20.37
2018-05-17T19:08:10.616Z,19.37
2018-05-17T19:10:38.774Z,22.60
2018-05-17T19:13:06.961Z,22.63
2018-05-17T19:15:35.099Z,25.13
2018-05-17T19:18:03.244Z,25.40
2018-05-17T19:20:31.459Z,23.47
2018-05-17T19:22:59.547Z,25.73
2018-05-17T19:25:27.852Z,25.17
2018-05-17T19:27:56.024Z,26.07
2018-05-17T19:30:24.174Z,24.43
2018-05-17T19:32:52.468Z,25.83
2018-05-17T19:35:20.604Z,24.25
2018-05-17T19:37:48.737Z,24.97
2018-05-17T19:40:16.871Z,26.57
2018-05-17T19:42:45.028Z,27.53
2018-05-17T19:45:14.025Z,28.57
2018-05-17T19:47:42.175Z,30.70
2018-05-17T19:50:10.297Z,28.07
2018-05-17T19:52:38.426Z,27.60
2018-05-17T19:55:06.674Z,27.73
2018-05-17T19:57:34.807Z,28.67
2018-05-17T20:00:02.969Z,27.77
2018-05-17T20:02:31.135Z,29.67
2018-05-17T20:04:59.352Z,29.80
2018-05-17T20:07:27.440Z,28.30
2018-05-17T20:09:55.575Z,25.13
2018-05-17T20:12:23.716Z,25.37
2018-05-17T20:14:51.852Z,24.10
2018-05-17T20:17:20.018Z,25.77
2018-05-17T20:19:48.158Z,25.03
2018-05-17T20:22:16.297Z,24.67
2018-05-17T20:24:44.450Z,22.20
2018-05-17T20:27:12.606Z,18.63
2018-05-17T20:29:40.779Z,20.03
2018-05-17T20:32:08.916Z,16.90
2018-05-17T20:34:37.066Z,16.50
2018-05-17T20:37:05.216Z,15.80
2018-05-17T20:39:33.369Z,14.77
2018-05-17T20:42:01.523Z,14.30
2018-05-17T20:44:29.695Z,16.37
2018-05-17T20:46:57.829Z,15.47
2018-05-17T20:49:25.971Z,15.90
2018-05-17T20:51:54.305Z,15.23
2018-05-17T20:54:22.454Z,16.00
2018-05-17T20:56:50.600Z,17.00
2018-05-17T20:59:18.734Z,14.90
2018-05-17T21:01:46.889Z,16.13
2018-05-17T21:04:15.047Z,16.58
2018-05-17T21:06:43.183Z,16.73
2018-05-17T21:09:11.337Z,16.50
2018-05-17T21:11:39.475Z,16.97
2018-05-17T21:14:07.615Z,15.00
2018-05-17T21:16:35.749Z,15.43
2018-05-17T21:19:03.903Z,15.00
2018-05-17T21:21:32.044Z,14.90
2018-05-17T21:24:00.200Z,14.73
2018-05-17T21:26:28.360Z,15.47
2018-05-17T21:28:56.501Z,14.35
2018-05-17T21:31:24.659Z,16.62
2018-05-17T21:33:52.808Z,15.70
2018-05-17T21:36:20.937Z,15.47
2018-05-17T21:38:49.085Z,16.20
2018-05-17T21:41:17.228Z,17.08
2018-05-17T21:43:45.372Z,17.73
2018-05-17T21:46:13.520Z,16.77
2018-05-17T21:48:41.659Z,16.47
2018-05-17T21:51:10.075Z,19.03
2018-05-17T21:53:38.215Z,16.93
2018-05-17T21:56:06.352Z,17.77
2018-05-17T21:58:34.500Z,16.85
2018-05-17T22:01:02.785Z,17.60
2018-05-17T22:03:31.038Z,17.43
2018-05-17T22:05:59.155Z,19.40
2018-05-17T22:08:27.310Z,18.50
2018-05-17T22:10:55.451Z,18.65
2018-05-17T22:13:23.587Z,19.15
2018-05-17T22:15:51.737Z,19.92
2018-05-17T22:18:19.855Z,20.27
2018-05-17T22:20:48.002Z,22.30
2018-05-17T22:23:16.160Z,21.00
2018-05-17T22:25:44.286Z,21.70
2018-05-17T22:28:13.734Z,22.50
2018-05-17T22:30:41.878Z,20.77
2018-05-17T22:33:10.255Z,23.73
2018-05-17T22:35:38.853Z,21.73
2018-05-17T22:38:07.032Z,22.13
2018-05-17T22:40:35.158Z,21.93
2018-05-17T22:43:03.294Z,23.03
2018-05-17T22:45:31.448Z,24.63
2018-05-17T22:47:59.578Z,23.37
2018-05-17T22:50:27.722Z,21.90
2018-05-17T22:52:55.857Z,20.40
2018-05-17T22:55:23.987Z,22.83
2018-05-17T22:58:03.917Z,21.03
2018-05-17T23:00:32.043Z,21.73
2018-05-17T23:03:00.179Z,24.13
2018-05-17T23:05:28.325Z,24.10
2018-05-17T23:07:56.459Z,24.50
2018-05-17T23:10:24.606Z,24.57
2018-05-17T23:12:52.771Z,24.10
2018-05-17T23:15:20.907Z,24.50
2018-05-17T23:17:49.052Z,25.13
2018-05-17T23:20:17.194Z,24.17
2018-05-17T23:22:45.343Z,24.10
2018-05-17T23:25:13.479Z,25.40
2018-05-17T23:27:41.616Z,24.40
2018-05-17T23:30:09.763Z,25.07
2018-05-17T23:32:37.886Z,25.80
2018-05-17T23:35:06.115Z,27.13
2018-05-17T23:37:34.237Z,25.40
2018-05-17T23:43:05.033Z,28.47
2018-05-17T23:45:33.162Z,27.42
2018-05-17T23:48:01.318Z,30.60
2018-05-17T23:50:29.467Z,33.70
2018-05-17T23:52:57.627Z,32.40
2018-05-17T23:55:25.765Z,32.87
2018-05-17T23:57:54.707Z,33.10
